Mackinaw City, MI (49701)

5:30 AM EDT on July 23, 2017 (GMT -0400)
Icebreaker Mackinaw Maritime Museum | | Change Station

Elev 574 ft 45.78 °N, 84.72 °W | Updated 1 minute ago

Overcast
Overcast
66.0 °F
Feels Like 66.0 °F
N
4.2
Wind Variable Wind from SSE
Gusts 7.4 mph

Today
High -- | Low -- °F
--% Chance of Precip.
Yesterday
High -- | Low -- °F
Precip. -- in
Pressure 29.79 in
Visibility 7.0 miles
Clouds Scattered Clouds 400 ft
Mostly Cloudy 9500 ft
Overcast 12000 ft
Dew Point 66 °F
Humidity 98%
Rainfall 0.00 in
Snow Depth Not available.
6:12 AM 9:18 PM
Waning Crescent, 0% visible
METAR KMCD 230913Z AUTO 12005KT 7SM SCT004 BKN095 OVC120 19/19 A2979 RMK AO2 T01880188
Pressure 29.79 in
Visibility 7.0 miles
Clouds Scattered Clouds 400 ft
Mostly Cloudy 9500 ft
Overcast 12000 ft
Dew Point 66 °F
Humidity 98%
Rainfall 0.00 in
Snow Depth Not available.
6:12 AM 9:18 PM
Waning Crescent, 0% visible
METAR KMCD 230913Z AUTO 12005KT 7SM SCT004 BKN095 OVC120 19/19 A2979 RMK AO2 T01880188

Get Severe Weather Alerts

Thanks for signing up!

Be on the lookout for a verification email in your inbox.

You'll start receiving the daily forecast at 6 AM.

×

10-Day Weather Forecast

Almanac

Astronomy

Jul. 23, 2017 Rise Set
Actual Time
Civil Twilight
Nautical Twilight
Astronomical Twilight
Moon
Length of Visible Light
Length of Day
Tomorrow will be .
, % of the Moon is Illuminated

Today's Extremes

State Highs State Lows

Community

WunderPhotos

Category 6

Welcome to Category 6. This is the collective home for Weather Underground's featured writeups by Dr. Jeff Masters (right), Bob Henson (left), Chris Burt, and other regular contributors.

Nearby

Air Quality

  Air Quality AQ Index Pollutant
Not available.

Snow Depth

Station Depth Elevation

Earthquake Activity

City Distance Mag. Time & Date
Minimum magnitude displayed is 2.5.

Coastal Water Temperatures

Place Temperature

Stations

Nearby Weather Stations

Station Location Temp. Windchill Dew Point Humidity Wind Precip. Elev Updated Type
                   

Watches & Warnings

There are currently no watches in effect.